createdAt,value
2023-03-17T00:01:06.735Z,7.15
2023-03-17T00:03:36.702Z,9.32
2023-03-17T00:06:03.362Z,11.35
2023-03-17T00:08:32.623Z,8.75
2023-03-17T00:10:59.357Z,8.25
2023-03-17T00:13:26.621Z,8.20
2023-03-17T00:16:02.545Z,8.65
2023-03-17T00:20:55.919Z,8.77
2023-03-17T00:23:24.200Z,8.30
2023-03-17T00:25:51.145Z,8.70
2023-03-17T00:28:20.230Z,8.68
2023-03-17T00:30:47.917Z,8.05
2023-03-17T00:33:16.244Z,7.93
2023-03-17T00:35:44.130Z,7.57
2023-03-17T00:38:15.312Z,8.95
2023-03-17T00:40:42.297Z,7.72
2023-03-17T00:43:08.662Z,7.00
2023-03-17T00:45:35.715Z,10.13
2023-03-17T00:48:02.146Z,13.23
2023-03-17T00:50:29.567Z,9.88
2023-03-17T00:52:57.574Z,7.28
2023-03-17T00:55:25.854Z,7.70
2023-03-17T00:57:52.405Z,8.38
2023-03-17T01:00:30.117Z,8.02
2023-03-17T01:02:57.241Z,7.35
2023-03-17T01:05:25.348Z,9.23
2023-03-17T01:07:54.992Z,10.15
2023-03-17T01:10:27.060Z,9.90
2023-03-17T01:12:55.286Z,7.47
2023-03-17T01:15:22.769Z,7.68
2023-03-17T01:17:49.683Z,13.68
2023-03-17T01:20:22.684Z,8.40
2023-03-17T01:22:50.174Z,10.60
2023-03-17T01:25:18.029Z,6.80
2023-03-17T01:27:45.507Z,7.32
2023-03-17T01:30:25.417Z,8.82
2023-03-17T01:32:52.127Z,10.10
2023-03-17T01:35:19.911Z,5.70
2023-03-17T01:37:46.689Z,8.70
2023-03-17T01:40:25.852Z,7.85
2023-03-17T01:42:58.399Z,5.95
2023-03-17T01:46:02.246Z,8.80
2023-03-17T01:48:31.013Z,9.02
2023-03-17T01:50:58.385Z,6.55
2023-03-17T01:53:24.938Z,7.10
2023-03-17T01:55:52.400Z,6.97
2023-03-17T01:58:23.366Z,7.50
2023-03-17T02:00:50.401Z,7.80
2023-03-17T02:03:17.947Z,9.18
2023-03-17T02:05:45.428Z,8.73
2023-03-17T02:08:14.605Z,9.68
2023-03-17T02:10:41.626Z,9.45
2023-03-17T02:13:10.591Z,8.40
2023-03-17T02:15:43.490Z,8.38
2023-03-17T02:18:10.834Z,7.03
2023-03-17T02:20:37.072Z,8.90
2023-03-17T02:23:05.488Z,8.63
2023-03-17T02:25:34.299Z,8.57
2023-03-17T02:28:06.964Z,7.90
2023-03-17T02:30:35.485Z,11.48
2023-03-17T02:33:02.480Z,9.52
2023-03-17T02:35:29.741Z,8.88
2023-03-17T02:37:56.210Z,9.55
2023-03-17T02:40:23.061Z,9.55
2023-03-17T02:42:50.006Z,11.05
2023-03-17T02:45:16.328Z,10.20
2023-03-17T02:47:42.738Z,8.57
2023-03-17T02:50:16.780Z,10.68
2023-03-17T02:52:43.124Z,6.47
2023-03-17T02:55:09.730Z,9.20
2023-03-17T02:57:36.251Z,7.70
2023-03-17T03:00:03.917Z,6.30
2023-03-17T03:02:30.270Z,9.02
2023-03-17T03:04:56.590Z,8.40
2023-03-17T03:07:22.898Z,8.60
2023-03-17T03:09:49.230Z,9.55
2023-03-17T03:12:15.532Z,10.20
2023-03-17T03:14:41.968Z,11.05
2023-03-17T03:17:08.340Z,10.23
2023-03-17T03:19:34.653Z,12.15
2023-03-17T03:22:00.958Z,10.57
2023-03-17T03:24:27.260Z,10.60
2023-03-17T03:26:53.576Z,14.10
2023-03-17T03:29:20.057Z,11.80
2023-03-17T03:31:46.344Z,15.38
2023-03-17T03:34:12.660Z,13.80
2023-03-17T03:36:38.978Z,12.80
2023-03-17T03:39:05.304Z,12.25
2023-03-17T03:41:31.636Z,12.05
2023-03-17T03:43:57.954Z,12.05
2023-03-17T03:46:24.300Z,13.35
2023-03-17T03:48:50.661Z,10.73
2023-03-17T03:51:17.158Z,10.07
2023-03-17T03:53:43.565Z,9.05
2023-03-17T03:56:10.321Z,11.05
2023-03-17T03:58:36.875Z,12.20
2023-03-17T04:01:07.332Z,10.75
2023-03-17T04:03:33.655Z,9.52
2023-03-17T04:05:59.960Z,10.13
2023-03-17T04:08:26.288Z,11.63
2023-03-17T04:10:52.709Z,11.07
2023-03-17T04:13:19.021Z,12.50
2023-03-17T04:15:45.419Z,9.55
2023-03-17T04:18:11.783Z,12.45
2023-03-17T04:20:38.086Z,12.50
2023-03-17T04:23:04.849Z,11.93
2023-03-17T04:25:31.171Z,14.73
2023-03-17T04:27:57.486Z,10.18
2023-03-17T04:30:23.872Z,10.48
2023-03-17T04:32:50.239Z,11.55
2023-03-17T04:35:20.009Z,11.70
2023-03-17T04:37:46.329Z,9.93
2023-03-17T04:40:13.619Z,11.30
2023-03-17T04:42:40.278Z,10.15
2023-03-17T04:45:07.746Z,10.27
2023-03-17T04:47:34.127Z,8.50
2023-03-17T04:50:01.022Z,10.77
2023-03-17T04:52:27.508Z,9.90
2023-03-17T04:54:53.827Z,10.40
2023-03-17T04:57:20.133Z,11.68
2023-03-17T04:59:46.555Z,9.38
2023-03-17T05:02:12.918Z,9.70
2023-03-17T05:04:39.318Z,11.68
2023-03-17T05:07:05.706Z,11.32
2023-03-17T05:09:32.007Z,12.25
2023-03-17T05:11:58.386Z,13.57
2023-03-17T05:14:25.058Z,12.43
2023-03-17T05:16:51.440Z,13.80
2023-03-17T05:19:18.123Z,11.85
2023-03-17T05:21:44.453Z,14.63
2023-03-17T05:24:10.834Z,13.25
2023-03-17T05:26:37.248Z,11.85
2023-03-17T05:29:03.592Z,14.00
2023-03-17T05:31:29.965Z,12.13
2023-03-17T05:33:56.746Z,11.30
2023-03-17T05:36:23.095Z,13.02
2023-03-17T05:38:49.401Z,12.48
2023-03-17T05:41:15.785Z,9.85
2023-03-17T05:43:42.305Z,14.52
2023-03-17T05:46:08.694Z,12.30
2023-03-17T05:48:35.296Z,11.70
2023-03-17T05:51:01.808Z,11.15
2023-03-17T05:53:28.178Z,12.18
2023-03-17T05:55:54.512Z,11.75
2023-03-17T05:58:20.816Z,11.95
2023-03-17T06:00:47.122Z,10.18
2023-03-17T06:03:13.865Z,10.05
2023-03-17T06:05:40.364Z,10.80
2023-03-17T06:08:06.830Z,12.60
2023-03-17T06:10:33.685Z,13.63
2023-03-17T06:13:02.151Z,14.93
2023-03-17T06:15:30.995Z,11.85
2023-03-17T06:17:57.545Z,10.25
2023-03-17T06:20:23.948Z,10.88
2023-03-17T06:23:03.469Z,10.63
2023-03-17T06:25:31.413Z,10.20
2023-03-17T06:27:57.910Z,8.48
2023-03-17T06:30:24.287Z,11.13
2023-03-17T06:32:50.639Z,12.75
2023-03-17T06:35:17.165Z,9.82
2023-03-17T06:37:43.511Z,10.02
2023-03-17T06:40:10.482Z,9.60
2023-03-17T06:42:36.785Z,9.00
2023-03-17T06:45:03.919Z,12.20
2023-03-17T06:47:30.474Z,10.15
2023-03-17T06:49:56.915Z,10.85
2023-03-17T06:52:23.270Z,9.07
2023-03-17T06:54:49.581Z,12.68
2023-03-17T06:57:15.889Z,10.05
2023-03-17T06:59:42.238Z,9.18
2023-03-17T07:02:10.644Z,8.07
2023-03-17T07:04:37.532Z,10.63
2023-03-17T07:07:06.794Z,10.32
2023-03-17T07:09:34.400Z,9.02
2023-03-17T07:12:01.771Z,11.90
2023-03-17T07:14:28.101Z,8.77
2023-03-17T07:16:54.457Z,11.80
2023-03-17T07:19:20.801Z,9.02
2023-03-17T07:21:47.252Z,8.68
2023-03-17T07:24:13.603Z,9.23
2023-03-17T07:26:39.963Z,9.00
2023-03-17T07:29:06.335Z,11.20
2023-03-17T07:31:32.705Z,8.30
2023-03-17T07:33:59.154Z,10.07
2023-03-17T07:36:25.485Z,9.68
2023-03-17T07:38:51.814Z,9.23
2023-03-17T07:41:18.141Z,8.88
2023-03-17T07:43:44.446Z,9.63
2023-03-17T07:46:10.913Z,9.27
2023-03-17T07:48:37.291Z,11.38
2023-03-17T07:51:03.676Z,11.85
2023-03-17T07:53:30.010Z,9.82
2023-03-17T07:55:56.356Z,9.45
2023-03-17T07:58:22.708Z,9.07
2023-03-17T08:00:49.087Z,9.00
2023-03-17T08:03:15.520Z,9.65
2023-03-17T08:05:41.987Z,8.60
2023-03-17T08:08:08.352Z,10.30
2023-03-17T08:10:35.315Z,8.38
2023-03-17T08:13:01.931Z,12.25
2023-03-17T08:15:28.237Z,10.07
2023-03-17T08:17:54.555Z,10.57
2023-03-17T08:20:20.919Z,9.10
2023-03-17T08:22:47.235Z,8.80
2023-03-17T08:25:19.525Z,8.45
2023-03-17T08:27:45.845Z,8.30
2023-03-17T08:30:12.688Z,10.60
2023-03-17T08:32:39.086Z,8.95
2023-03-17T08:35:05.891Z,12.70
2023-03-17T08:37:32.515Z,10.10
2023-03-17T08:39:58.925Z,8.38
2023-03-17T08:42:25.236Z,8.38
2023-03-17T08:44:51.552Z,6.32
2023-03-17T08:47:17.922Z,9.35
2023-03-17T08:49:44.312Z,11.00
2023-03-17T08:52:10.788Z,10.88
2023-03-17T08:54:37.108Z,7.32
2023-03-17T08:57:03.445Z,7.65
2023-03-17T08:59:29.889Z,9.27
2023-03-17T09:01:56.323Z,8.70
2023-03-17T09:04:22.750Z,8.10
2023-03-17T09:07:02.297Z,7.95
2023-03-17T09:09:29.566Z,8.40
2023-03-17T09:11:55.880Z,7.82
2023-03-17T09:14:22.196Z,5.90
2023-03-17T09:16:48.480Z,7.72
2023-03-17T09:19:14.810Z,7.32
2023-03-17T09:21:41.130Z,8.65
2023-03-17T09:24:07.469Z,6.55
2023-03-17T09:26:33.947Z,7.43
2023-03-17T09:29:00.796Z,12.75
2023-03-17T09:31:28.363Z,7.75
2023-03-17T09:33:54.680Z,5.07
2023-03-17T09:36:21.004Z,10.77
2023-03-17T09:38:47.325Z,6.00
2023-03-17T09:41:16.452Z,8.00
2023-03-17T09:44:01.037Z,6.50
2023-03-17T09:46:46.392Z,6.05
2023-03-17T09:51:45.149Z,6.90
2023-03-17T09:54:18.816Z,6.70
2023-03-17T09:56:50.498Z,5.28
2023-03-17T09:59:30.227Z,8.52
2023-03-17T10:01:56.855Z,6.25
2023-03-17T10:04:23.279Z,4.90
2023-03-17T10:06:50.813Z,5.40
2023-03-17T10:09:35.129Z,7.07
2023-03-17T10:12:30.210Z,6.40
2023-03-17T10:15:03.522Z,8.25
2023-03-17T10:17:34.250Z,7.63
2023-03-17T10:20:26.783Z,5.40
2023-03-17T10:22:57.114Z,4.63
2023-03-17T10:25:28.497Z,6.60
2023-03-17T10:27:58.767Z,5.88
2023-03-17T10:30:25.706Z,4.65
2023-03-17T10:32:52.555Z,5.97
2023-03-17T10:35:19.123Z,6.80
2023-03-17T10:37:48.606Z,7.03
2023-03-17T10:40:30.799Z,6.97
2023-03-17T10:43:03.796Z,3.90
2023-03-17T10:45:33.868Z,5.10
2023-03-17T10:48:02.790Z,4.28
2023-03-17T10:50:33.007Z,5.32
2023-03-17T10:53:05.562Z,5.55
2023-03-17T10:55:41.632Z,6.82
2023-03-17T10:58:24.717Z,4.90
2023-03-17T11:01:03.467Z,4.65
2023-03-17T11:03:32.649Z,4.22
2023-03-17T11:06:12.770Z,4.03
2023-03-17T11:08:46.695Z,3.70
2023-03-17T11:11:29.732Z,4.57
2023-03-17T11:14:10.399Z,4.65
2023-03-17T11:16:39.542Z,6.03
2023-03-17T11:19:11.593Z,4.40
2023-03-17T11:21:57.926Z,6.43
2023-03-17T11:24:32.087Z,5.70
2023-03-17T11:27:29.184Z,4.15
2023-03-17T11:30:14.898Z,5.20
2023-03-17T11:33:06.952Z,5.38
2023-03-17T11:35:48.867Z,6.00
2023-03-17T11:38:28.318Z,7.82
2023-03-17T11:41:01.787Z,4.03
2023-03-17T11:43:58.855Z,5.50
2023-03-17T11:46:42.252Z,5.30
2023-03-17T11:49:33.511Z,3.72
2023-03-17T11:52:16.200Z,5.13
2023-03-17T11:55:10.545Z,5.40
2023-03-17T11:57:45.622Z,3.70
2023-03-17T12:00:31.593Z,3.92
2023-03-17T12:03:04.194Z,4.75
2023-03-17T12:05:30.735Z,4.53
2023-03-17T12:08:14.905Z,6.18
2023-03-17T12:10:55.633Z,5.32
2023-03-17T12:13:28.408Z,6.20
2023-03-17T12:16:03.836Z,3.70
2023-03-17T12:18:37.347Z,3.75
2023-03-17T12:21:20.212Z,6.70
2023-03-17T12:23:48.851Z,3.90
2023-03-17T12:26:21.257Z,5.85
2023-03-17T12:28:59.626Z,4.57
2023-03-17T12:31:31.768Z,4.00
2023-03-17T12:34:08.375Z,7.80
2023-03-17T12:36:36.271Z,6.07
2023-03-17T12:39:09.767Z,6.20
2023-03-17T12:41:57.892Z,5.10
2023-03-17T12:44:49.985Z,5.57
2023-03-17T12:47:47.235Z,10.73
2023-03-17T12:50:40.618Z,9.05
2023-03-17T12:53:24.014Z,5.93
2023-03-17T12:55:53.602Z,7.03
2023-03-17T12:58:48.926Z,9.23
2023-03-17T13:01:15.205Z,5.57
2023-03-17T13:04:12.441Z,5.80
2023-03-17T13:07:01.749Z,11.50
2023-03-17T13:09:31.574Z,6.25
2023-03-17T13:11:59.570Z,6.72
2023-03-17T13:14:45.137Z,7.72
2023-03-17T13:17:11.407Z,4.88
2023-03-17T13:19:54.677Z,6.10
2023-03-17T13:22:20.919Z,6.65
2023-03-17T13:24:49.900Z,7.03
2023-03-17T13:27:25.443Z,5.32
2023-03-17T13:29:51.769Z,4.88
2023-03-17T13:32:24.120Z,3.90
2023-03-17T13:34:53.490Z,4.30
2023-03-17T13:37:27.545Z,4.68
2023-03-17T13:40:02.872Z,6.80
2023-03-17T13:43:00.203Z,5.47
2023-03-17T13:45:38.106Z,4.15
2023-03-17T13:48:26.257Z,5.57
2023-03-17T13:51:21.197Z,4.78
2023-03-17T13:53:53.621Z,5.10
2023-03-17T13:56:45.784Z,5.75
2023-03-17T13:59:17.616Z,4.57
2023-03-17T14:02:02.917Z,10.70
2023-03-17T14:04:45.055Z,9.90
2023-03-17T14:07:18.747Z,3.65
2023-03-17T14:09:45.132Z,5.78
2023-03-17T14:12:22.788Z,9.40
2023-03-17T14:14:55.524Z,8.57
2023-03-17T14:17:44.714Z,6.82
2023-03-17T14:20:16.823Z,6.80
2023-03-17T14:22:45.965Z,4.25
2023-03-17T14:25:24.888Z,6.10
2023-03-17T14:27:54.026Z,8.30
2023-03-17T14:30:30.734Z,5.18
2023-03-17T14:33:06.031Z,7.63
2023-03-17T14:35:38.664Z,6.20
2023-03-17T14:38:17.555Z,6.85
2023-03-17T14:40:43.878Z,3.83
2023-03-17T14:43:10.513Z,4.03
2023-03-17T14:45:52.870Z,5.35
2023-03-17T14:48:26.003Z,3.42
2023-03-17T14:50:57.918Z,4.20
2023-03-17T14:53:24.621Z,5.85
2023-03-17T14:55:52.536Z,4.57
2023-03-17T14:58:30.858Z,4.70
2023-03-17T15:01:28.604Z,5.55
2023-03-17T15:03:57.869Z,3.20
2023-03-17T15:06:29.180Z,4.82
2023-03-17T15:08:58.985Z,3.47
2023-03-17T15:11:35.894Z,3.58
2023-03-17T15:14:39.675Z,5.22
2023-03-17T15:17:21.481Z,6.68
2023-03-17T15:19:51.083Z,5.20
2023-03-17T15:22:25.012Z,6.88
2023-03-17T15:25:32.347Z,3.87
2023-03-17T15:27:58.717Z,3.92
2023-03-17T15:30:27.452Z,5.30
2023-03-17T15:33:01.977Z,5.10
2023-03-17T15:35:28.849Z,4.68
2023-03-17T15:37:55.598Z,5.30
2023-03-17T15:40:21.949Z,7.65
2023-03-17T15:42:48.277Z,4.30
2023-03-17T15:45:18.093Z,2.55
2023-03-17T15:47:46.553Z,4.78
2023-03-17T15:50:42.225Z,5.60
2023-03-17T15:53:11.887Z,7.50
2023-03-17T15:55:38.291Z,8.05
2023-03-17T15:58:04.610Z,7.22
2023-03-17T16:00:31.464Z,6.70
2023-03-17T16:03:00.623Z,7.15
2023-03-17T16:05:30.856Z,4.40
2023-03-17T16:07:57.315Z,7.30
2023-03-17T16:10:27.353Z,7.43
2023-03-17T16:12:54.592Z,7.65
2023-03-17T16:15:28.564Z,7.10
2023-03-17T16:17:58.282Z,6.73
2023-03-17T16:20:27.636Z,2.95
2023-03-17T16:22:56.425Z,5.28
2023-03-17T16:25:31.101Z,6.93
2023-03-17T16:27:59.838Z,5.50
2023-03-17T16:30:32.308Z,5.70
2023-03-17T16:33:01.890Z,6.28
2023-03-17T16:35:28.830Z,6.25
2023-03-17T16:37:55.570Z,8.93
2023-03-17T16:40:28.077Z,9.43
2023-03-17T16:42:54.831Z,6.00
2023-03-17T16:45:27.380Z,5.10
2023-03-17T16:47:55.344Z,5.47
2023-03-17T16:50:24.584Z,7.20
2023-03-17T16:52:51.173Z,5.35
2023-03-17T16:55:18.946Z,4.57
2023-03-17T16:57:47.283Z,5.22
2023-03-17T17:00:18.005Z,6.10
2023-03-17T17:02:44.893Z,11.65
2023-03-17T17:05:23.713Z,8.68
2023-03-17T17:07:51.315Z,5.15
2023-03-17T17:10:19.892Z,5.50
2023-03-17T17:12:47.263Z,7.63
2023-03-17T17:15:15.328Z,3.85
2023-03-17T17:17:45.430Z,6.30
2023-03-17T17:20:27.385Z,8.45
2023-03-17T17:22:54.021Z,8.70
2023-03-17T17:25:20.570Z,8.15
2023-03-17T17:27:47.515Z,7.28
2023-03-17T17:30:17.272Z,5.32
2023-03-17T17:32:44.488Z,5.10
2023-03-17T17:35:11.377Z,6.43
2023-03-17T17:37:38.325Z,4.43
2023-03-17T17:40:06.107Z,7.95
2023-03-17T17:42:32.467Z,3.88
2023-03-17T17:44:58.854Z,4.82
2023-03-17T17:47:25.176Z,5.70
2023-03-17T17:49:51.532Z,4.55
2023-03-17T17:52:17.958Z,4.70
2023-03-17T17:54:44.685Z,5.65
2023-03-17T17:57:14.268Z,7.30
2023-03-17T17:59:40.593Z,7.25
2023-03-17T18:02:07.008Z,6.63
2023-03-17T18:04:33.509Z,6.45
2023-03-17T18:06:59.870Z,5.63
2023-03-17T18:09:26.206Z,6.43
2023-03-17T18:11:52.501Z,4.35
2023-03-17T18:14:18.829Z,7.68
2023-03-17T18:16:45.714Z,4.95
2023-03-17T18:19:12.780Z,4.63
2023-03-17T18:21:39.335Z,5.38
2023-03-17T18:24:05.926Z,3.58
2023-03-17T18:26:32.903Z,6.28
2023-03-17T18:28:59.669Z,5.85
2023-03-17T18:31:34.640Z,7.82
2023-03-17T18:34:17.593Z,5.50
2023-03-17T18:36:44.032Z,5.53
2023-03-17T18:39:10.836Z,8.13
2023-03-17T18:41:37.758Z,7.07
2023-03-17T18:44:04.152Z,6.18
2023-03-17T18:46:30.463Z,7.38
2023-03-17T18:48:56.790Z,6.75
2023-03-17T18:51:23.123Z,6.35
2023-03-17T18:53:49.443Z,13.10
2023-03-17T18:56:16.039Z,6.75
2023-03-17T18:58:42.743Z,10.40
2023-03-17T19:01:09.136Z,5.35
2023-03-17T19:03:35.566Z,5.97
2023-03-17T19:06:15.092Z,6.85
2023-03-17T19:08:41.653Z,6.03
2023-03-17T19:11:09.708Z,5.82
2023-03-17T19:13:37.095Z,8.80
2023-03-17T19:16:05.343Z,6.28
2023-03-17T19:18:31.906Z,9.95
2023-03-17T19:20:58.242Z,7.55
2023-03-17T19:23:24.685Z,5.18
2023-03-17T19:25:51.094Z,5.13
2023-03-17T19:28:18.093Z,7.25
2023-03-17T19:30:45.376Z,9.02
2023-03-17T19:33:13.331Z,6.90
2023-03-17T19:35:40.480Z,7.00
2023-03-17T19:38:07.015Z,4.75
2023-03-17T19:40:34.209Z,8.13
2023-03-17T19:43:00.550Z,6.22
2023-03-17T19:45:26.881Z,8.35
2023-03-17T19:47:53.214Z,9.10
2023-03-17T19:50:19.513Z,7.38
2023-03-17T19:52:45.927Z,5.97
2023-03-17T19:55:12.234Z,12.77
2023-03-17T19:57:38.588Z,8.10
2023-03-17T20:00:05.555Z,9.05
2023-03-17T20:02:31.872Z,5.72
2023-03-17T20:04:58.254Z,9.05
2023-03-17T20:07:24.590Z,8.00
2023-03-17T20:09:51.027Z,5.95
2023-03-17T20:12:17.337Z,8.20
2023-03-17T20:14:43.637Z,5.07
2023-03-17T20:17:09.937Z,9.93
2023-03-17T20:19:36.264Z,8.48
2023-03-17T20:22:02.600Z,6.63
2023-03-17T20:24:28.924Z,7.55
2023-03-17T20:26:55.241Z,8.90
2023-03-17T20:29:21.562Z,6.03
2023-03-17T20:31:47.969Z,7.00
2023-03-17T20:34:14.269Z,6.00
2023-03-17T20:36:40.672Z,11.10
2023-03-17T20:39:07.026Z,8.50
2023-03-17T20:41:33.430Z,12.32
2023-03-17T20:43:59.855Z,8.05
2023-03-17T20:46:26.251Z,7.20
2023-03-17T20:48:52.843Z,9.25
2023-03-17T20:51:19.180Z,9.38
2023-03-17T20:53:47.038Z,8.57
2023-03-17T20:56:15.423Z,9.63
2023-03-17T20:58:43.446Z,9.70
2023-03-17T21:01:09.854Z,9.80
2023-03-17T21:03:36.156Z,6.97
2023-03-17T21:06:02.485Z,7.57
2023-03-17T21:08:28.824Z,7.68
2023-03-17T21:10:55.179Z,10.10
2023-03-17T21:13:21.549Z,6.32
2023-03-17T21:15:47.917Z,10.05
2023-03-17T21:18:14.298Z,5.18
2023-03-17T21:20:40.737Z,6.18
2023-03-17T21:23:07.035Z,7.72
2023-03-17T21:25:34.658Z,10.45
2023-03-17T21:28:00.963Z,5.05
2023-03-17T21:30:27.627Z,6.35
2023-03-17T21:32:54.087Z,6.57
2023-03-17T21:35:21.107Z,6.35
2023-03-17T21:37:47.563Z,9.25
2023-03-17T21:40:14.532Z,7.50
2023-03-17T21:42:41.789Z,8.70
2023-03-17T21:45:08.746Z,8.35
2023-03-17T21:47:35.071Z,7.90
2023-03-17T21:50:01.619Z,5.82
2023-03-17T21:52:27.915Z,4.80
2023-03-17T21:54:54.289Z,11.15
2023-03-17T21:57:20.666Z,7.63
2023-03-17T21:59:47.029Z,5.38
2023-03-17T22:02:13.788Z,6.93
2023-03-17T22:04:40.198Z,4.35
2023-03-17T22:07:06.524Z,4.30
2023-03-17T22:09:32.848Z,4.53
2023-03-17T22:11:59.204Z,4.63
2023-03-17T22:14:25.495Z,7.43
2023-03-17T22:16:51.825Z,4.75
2023-03-17T22:19:21.010Z,5.95
2023-03-17T22:21:47.631Z,6.05
2023-03-17T22:24:13.973Z,6.28
2023-03-17T22:26:40.276Z,6.15
2023-03-17T22:29:06.592Z,5.57
2023-03-17T22:31:33.177Z,4.93
2023-03-17T22:33:59.597Z,4.68
2023-03-17T22:36:26.893Z,4.85
2023-03-17T22:38:53.880Z,8.48
2023-03-17T22:41:23.163Z,4.10
2023-03-17T22:43:50.236Z,6.10
2023-03-17T22:46:16.848Z,4.22
2023-03-17T22:48:43.800Z,6.00
2023-03-17T22:51:12.895Z,4.97
2023-03-17T22:53:39.923Z,4.65
2023-03-17T22:56:07.157Z,4.70
2023-03-17T22:58:34.006Z,5.68
2023-03-17T23:01:00.348Z,5.28
2023-03-17T23:03:27.440Z,7.65
2023-03-17T23:05:57.802Z,6.75
2023-03-17T23:08:24.563Z,4.82
2023-03-17T23:10:51.421Z,4.25
2023-03-17T23:13:19.048Z,6.25
2023-03-17T23:15:45.949Z,6.72
2023-03-17T23:18:12.262Z,5.53
2023-03-17T23:20:39.594Z,6.53
2023-03-17T23:23:06.970Z,4.85
2023-03-17T23:25:33.668Z,6.03
2023-03-17T23:28:00.010Z,5.20
2023-03-17T23:30:26.486Z,5.55
2023-03-17T23:32:53.168Z,7.80
2023-03-17T23:35:19.580Z,7.43
2023-03-17T23:37:46.065Z,4.43
2023-03-17T23:40:13.628Z,4.82
2023-03-17T23:42:39.922Z,7.15
2023-03-17T23:45:06.689Z,7.85
2023-03-17T23:47:33.088Z,6.85
2023-03-17T23:49:59.417Z,6.45
2023-03-17T23:52:25.760Z,9.20
2023-03-17T23:54:52.067Z,5.63
2023-03-17T23:57:18.371Z,7.40
2023-03-17T23:59:44.736Z,9.27
